sensor_id;sensor_type;location;lat;lon;timestamp;pressure;altitude;pressure_sealevel;temperature;humidity
62548;BME280;48602;45.192;5.722;2023-07-28T00:01:29;98754.75;;;24.01;49.90
62548;BME280;48602;45.192;5.722;2023-07-28T00:03:55;98763.69;;;24.02;49.97
62548;BME280;48602;45.192;5.722;2023-07-28T00:06:21;98776.31;;;24.01;49.84
62548;BME280;48602;45.192;5.722;2023-07-28T00:08:46;98782.34;;;23.95;50.52
62548;BME280;48602;45.192;5.722;2023-07-28T00:11:14;98786.88;;;23.95;50.24
62548;BME280;48602;45.192;5.722;2023-07-28T00:13:40;98799.63;;;23.93;49.64
62548;BME280;48602;45.192;5.722;2023-07-28T00:16:06;98810.56;;;23.91;48.97
62548;BME280;48602;45.192;5.722;2023-07-28T00:18:32;98810.31;;;23.85;48.45
62548;BME280;48602;45.192;5.722;2023-07-28T00:20:57;98809.41;;;23.76;47.82
62548;BME280;48602;45.192;5.722;2023-07-28T00:23:23;98817.06;;;23.71;48.00
62548;BME280;48602;45.192;5.722;2023-07-28T00:25:48;98820.06;;;23.68;47.83
62548;BME280;48602;45.192;5.722;2023-07-28T00:28:13;98821.75;;;23.69;48.39
62548;BME280;48602;45.192;5.722;2023-07-28T00:30:39;98825.16;;;23.71;47.66
62548;BME280;48602;45.192;5.722;2023-07-28T00:33:05;98820.31;;;23.75;48.07
62548;BME280;48602;45.192;5.722;2023-07-28T00:35:30;98823.00;;;23.75;48.13
62548;BME280;48602;45.192;5.722;2023-07-28T00:37:56;98822.00;;;23.76;47.86
62548;BME280;48602;45.192;5.722;2023-07-28T00:40:22;98824.00;;;23.74;48.21
62548;BME280;48602;45.192;5.722;2023-07-28T00:42:48;98820.63;;;23.72;48.65
62548;BME280;48602;45.192;5.722;2023-07-28T00:45:13;98824.44;;;23.69;48.66
62548;BME280;48602;45.192;5.722;2023-07-28T00:47:39;98829.97;;;23.67;50.28
62548;BME280;48602;45.192;5.722;2023-07-28T00:50:05;98832.81;;;23.66;50.40
62548;BME280;48602;45.192;5.722;2023-07-28T00:52:31;98827.91;;;23.61;50.82
62548;BME280;48602;45.192;5.722;2023-07-28T00:54:57;98827.38;;;23.58;51.24
62548;BME280;48602;45.192;5.722;2023-07-28T00:57:22;98819.59;;;23.55;51.41
62548;BME280;48602;45.192;5.722;2023-07-28T00:59:48;98819.75;;;23.53;51.71
62548;BME280;48602;45.192;5.722;2023-07-28T01:02:13;98805.59;;;23.51;51.13
62548;BME280;48602;45.192;5.722;2023-07-28T01:04:39;98810.38;;;23.48;51.70
62548;BME280;48602;45.192;5.722;2023-07-28T01:07:26;98814.91;;;23.47;51.61
62548;BME280;48602;45.192;5.722;2023-07-28T01:10:02;98819.22;;;23.40;52.07
62548;BME280;48602;45.192;5.722;2023-07-28T01:12:30;98812.88;;;23.31;51.11
62548;BME280;48602;45.192;5.722;2023-07-28T01:14:56;98818.31;;;23.22;51.10
62548;BME280;48602;45.192;5.722;2023-07-28T01:17:21;98815.50;;;23.14;52.29
62548;BME280;48602;45.192;5.722;2023-07-28T01:19:49;98814.28;;;23.08;51.00
62548;BME280;48602;45.192;5.722;2023-07-28T01:24:57;98819.38;;;23.02;51.87
62548;BME280;48602;45.192;5.722;2023-07-28T01:27:27;98814.16;;;23.00;51.87
62548;BME280;48602;45.192;5.722;2023-07-28T01:29:53;98805.38;;;22.98;52.30
62548;BME280;48602;45.192;5.722;2023-07-28T01:32:19;98810.75;;;22.98;52.83
62548;BME280;48602;45.192;5.722;2023-07-28T01:34:45;98802.84;;;22.96;53.16
62548;BME280;48602;45.192;5.722;2023-07-28T01:37:10;98799.31;;;22.96;53.19
62548;BME280;48602;45.192;5.722;2023-07-28T01:39:35;98787.88;;;22.94;52.90
62548;BME280;48602;45.192;5.722;2023-07-28T01:42:01;98784.00;;;22.96;53.17
62548;BME280;48602;45.192;5.722;2023-07-28T01:44:26;98783.72;;;23.00;53.33
62548;BME280;48602;45.192;5.722;2023-07-28T01:46:51;98783.03;;;22.97;53.64
62548;BME280;48602;45.192;5.722;2023-07-28T01:49:17;98778.69;;;22.87;53.80
62548;BME280;48602;45.192;5.722;2023-07-28T01:51:42;98783.50;;;22.83;53.89
62548;BME280;48602;45.192;5.722;2023-07-28T01:54:07;98776.56;;;22.81;53.42
62548;BME280;48602;45.192;5.722;2023-07-28T01:56:33;98779.41;;;22.79;53.71
62548;BME280;48602;45.192;5.722;2023-07-28T01:58:58;98770.69;;;22.77;54.02
62548;BME280;48602;45.192;5.722;2023-07-28T02:01:23;98764.44;;;22.77;53.89
62548;BME280;48602;45.192;5.722;2023-07-28T02:03:49;98761.16;;;22.73;53.47
62548;BME280;48602;45.192;5.722;2023-07-28T02:06:14;98767.81;;;22.69;53.88
62548;BME280;48602;45.192;5.722;2023-07-28T02:08:39;98767.25;;;22.66;53.93
62548;BME280;48602;45.192;5.722;2023-07-28T02:11:05;98759.09;;;22.57;54.38
62548;BME280;48602;45.192;5.722;2023-07-28T02:13:30;98748.94;;;22.51;54.71
62548;BME280;48602;45.192;5.722;2023-07-28T02:15:55;98753.03;;;22.46;54.40
62548;BME280;48602;45.192;5.722;2023-07-28T02:18:21;98742.47;;;22.44;54.25
62548;BME280;48602;45.192;5.722;2023-07-28T02:20:49;98750.34;;;22.46;54.89
62548;BME280;48602;45.192;5.722;2023-07-28T02:23:15;98750.81;;;22.41;54.77
62548;BME280;48602;45.192;5.722;2023-07-28T02:25:40;98764.53;;;22.38;56.31
62548;BME280;48602;45.192;5.722;2023-07-28T02:28:07;98764.56;;;22.28;56.10
62548;BME280;48602;45.192;5.722;2023-07-28T02:30:33;98753.94;;;22.17;55.98
62548;BME280;48602;45.192;5.722;2023-07-28T02:32:58;98747.03;;;22.05;55.33
62548;BME280;48602;45.192;5.722;2023-07-28T02:35:24;98744.50;;;21.94;56.43
62548;BME280;48602;45.192;5.722;2023-07-28T02:37:49;98756.63;;;21.88;57.47
62548;BME280;48602;45.192;5.722;2023-07-28T02:40:14;98757.91;;;21.84;56.94
62548;BME280;48602;45.192;5.722;2023-07-28T02:42:40;98750.13;;;21.81;57.45
62548;BME280;48602;45.192;5.722;2023-07-28T02:45:05;98740.81;;;21.76;58.38
62548;BME280;48602;45.192;5.722;2023-07-28T02:47:31;98754.50;;;21.73;57.71
62548;BME280;48602;45.192;5.722;2023-07-28T02:49:57;98755.91;;;21.67;57.97
62548;BME280;48602;45.192;5.722;2023-07-28T02:52:22;98765.38;;;21.62;60.49
62548;BME280;48602;45.192;5.722;2023-07-28T02:54:48;98754.78;;;21.60;59.98
62548;BME280;48602;45.192;5.722;2023-07-28T02:57:15;98751.25;;;21.59;59.47
62548;BME280;48602;45.192;5.722;2023-07-28T02:59:40;98747.59;;;21.61;62.52
62548;BME280;48602;45.192;5.722;2023-07-28T03:02:05;98741.25;;;21.62;60.41
62548;BME280;48602;45.192;5.722;2023-07-28T03:04:31;98746.31;;;21.65;61.28
62548;BME280;48602;45.192;5.722;2023-07-28T03:06:56;98749.41;;;21.70;62.02
62548;BME280;48602;45.192;5.722;2023-07-28T03:09:22;98742.34;;;21.69;61.85
62548;BME280;48602;45.192;5.722;2023-07-28T03:11:47;98741.38;;;21.70;61.65
62548;BME280;48602;45.192;5.722;2023-07-28T03:14:12;98740.81;;;21.76;60.17
62548;BME280;48602;45.192;5.722;2023-07-28T03:16:38;98742.22;;;21.80;60.98
62548;BME280;48602;45.192;5.722;2023-07-28T03:19:03;98750.84;;;21.83;61.49
62548;BME280;48602;45.192;5.722;2023-07-28T03:21:30;98759.72;;;21.84;60.85
62548;BME280;48602;45.192;5.722;2023-07-28T03:23:56;98753.66;;;21.82;62.09
62548;BME280;48602;45.192;5.722;2023-07-28T03:26:21;98763.41;;;21.83;63.78
62548;BME280;48602;45.192;5.722;2023-07-28T03:28:47;98770.19;;;21.87;62.77
62548;BME280;48602;45.192;5.722;2023-07-28T03:31:12;98783.19;;;21.91;62.40
62548;BME280;48602;45.192;5.722;2023-07-28T03:33:38;98785.44;;;21.96;61.12
62548;BME280;48602;45.192;5.722;2023-07-28T03:36:03;98786.75;;;22.02;59.29
62548;BME280;48602;45.192;5.722;2023-07-28T03:38:28;98787.31;;;22.05;58.38
62548;BME280;48602;45.192;5.722;2023-07-28T03:40:54;98787.88;;;22.09;57.94
62548;BME280;48602;45.192;5.722;2023-07-28T03:43:20;98795.66;;;22.12;57.70
62548;BME280;48602;45.192;5.722;2023-07-28T03:45:45;98785.47;;;22.15;59.62
62548;BME280;48602;45.192;5.722;2023-07-28T03:48:11;98781.66;;;22.18;61.04
62548;BME280;48602;45.192;5.722;2023-07-28T03:50:36;98779.38;;;22.23;60.47
62548;BME280;48602;45.192;5.722;2023-07-28T03:53:02;98784.16;;;22.29;59.48
62548;BME280;48602;45.192;5.722;2023-07-28T03:55:27;98794.22;;;22.37;60.04
62548;BME280;48602;45.192;5.722;2023-07-28T03:57:52;98790.13;;;22.42;59.00
62548;BME280;48602;45.192;5.722;2023-07-28T04:00:18;98789.50;;;22.48;58.94
62548;BME280;48602;45.192;5.722;2023-07-28T04:02:43;98796.31;;;22.52;58.80
62548;BME280;48602;45.192;5.722;2023-07-28T04:05:09;98811.16;;;22.56;58.96
62548;BME280;48602;45.192;5.722;2023-07-28T04:07:34;98820.63;;;22.60;58.57
62548;BME280;48602;45.192;5.722;2023-07-28T04:10:00;98817.63;;;22.63;58.50
62548;BME280;48602;45.192;5.722;2023-07-28T04:12:25;98821.88;;;22.66;58.81
62548;BME280;48602;45.192;5.722;2023-07-28T04:14:50;98823.69;;;22.66;60.48
62548;BME280;48602;45.192;5.722;2023-07-28T04:17:16;98841.66;;;22.65;60.11
62548;BME280;48602;45.192;5.722;2023-07-28T04:19:41;98853.13;;;22.67;59.92
62548;BME280;48602;45.192;5.722;2023-07-28T04:22:07;98857.38;;;22.70;59.78
62548;BME280;48602;45.192;5.722;2023-07-28T04:24:32;98851.84;;;22.71;59.66
62548;BME280;48602;45.192;5.722;2023-07-28T04:26:57;98852.69;;;22.72;59.17
62548;BME280;48602;45.192;5.722;2023-07-28T04:29:23;98846.47;;;22.71;59.10
62548;BME280;48602;45.192;5.722;2023-07-28T04:31:49;98838.84;;;22.67;58.53
62548;BME280;48602;45.192;5.722;2023-07-28T04:34:14;98842.97;;;22.61;59.89
62548;BME280;48602;45.192;5.722;2023-07-28T04:36:39;98840.56;;;22.58;60.23
62548;BME280;48602;45.192;5.722;2023-07-28T04:39:05;98843.38;;;22.56;60.35
62548;BME280;48602;45.192;5.722;2023-07-28T04:41:30;98850.47;;;22.57;60.46
62548;BME280;48602;45.192;5.722;2023-07-28T04:43:56;98859.66;;;22.55;61.44
62548;BME280;48602;45.192;5.722;2023-07-28T04:46:21;98862.19;;;22.56;61.54
62548;BME280;48602;45.192;5.722;2023-07-28T04:48:47;98860.38;;;22.57;61.63
62548;BME280;48602;45.192;5.722;2023-07-28T04:51:12;98865.88;;;22.55;61.69
62548;BME280;48602;45.192;5.722;2023-07-28T04:53:38;98872.38;;;22.53;61.49
62548;BME280;48602;45.192;5.722;2023-07-28T04:56:03;98897.56;;;22.52;61.12
62548;BME280;48602;45.192;5.722;2023-07-28T04:58:29;98913.81;;;22.50;60.97
62548;BME280;48602;45.192;5.722;2023-07-28T05:00:54;98924.56;;;22.50;61.96
62548;BME280;48602;45.192;5.722;2023-07-28T05:03:20;98920.31;;;22.48;61.62
62548;BME280;48602;45.192;5.722;2023-07-28T05:05:45;98920.91;;;22.42;63.10
62548;BME280;48602;45.192;5.722;2023-07-28T05:08:11;98933.88;;;22.37;63.30
62548;BME280;48602;45.192;5.722;2023-07-28T05:10:36;98935.44;;;22.29;63.89
62548;BME280;48602;45.192;5.722;2023-07-28T05:13:02;98940.66;;;22.21;65.04
62548;BME280;48602;45.192;5.722;2023-07-28T05:15:30;98943.03;;;22.15;65.29
62548;BME280;48602;45.192;5.722;2023-07-28T05:17:56;98944.59;;;22.08;66.20
62548;BME280;48602;45.192;5.722;2023-07-28T05:20:21;98944.16;;;22.03;66.52
62548;BME280;48602;45.192;5.722;2023-07-28T05:22:47;98948.06;;;21.99;66.95
62548;BME280;48602;45.192;5.722;2023-07-28T05:25:12;98946.66;;;21.94;67.56
62548;BME280;48602;45.192;5.722;2023-07-28T05:27:38;98939.16;;;21.88;68.47
62548;BME280;48602;45.192;5.722;2023-07-28T05:30:03;98933.34;;;21.83;69.31
62548;BME280;48602;45.192;5.722;2023-07-28T05:32:29;98934.88;;;21.76;70.26
62548;BME280;48602;45.192;5.722;2023-07-28T05:34:54;98938.09;;;21.70;70.22
62548;BME280;48602;45.192;5.722;2023-07-28T05:37:20;98940.75;;;21.61;71.13
62548;BME280;48602;45.192;5.722;2023-07-28T05:39:45;98943.00;;;21.55;70.74
62548;BME280;48602;45.192;5.722;2023-07-28T05:42:10;98943.53;;;21.49;71.13
62548;BME280;48602;45.192;5.722;2023-07-28T05:44:36;98937.56;;;21.46;71.75
62548;BME280;48602;45.192;5.722;2023-07-28T05:47:01;98926.28;;;21.42;72.39
62548;BME280;48602;45.192;5.722;2023-07-28T05:49:26;98927.97;;;21.43;72.75
62548;BME280;48602;45.192;5.722;2023-07-28T05:51:52;98925.44;;;21.42;72.86
62548;BME280;48602;45.192;5.722;2023-07-28T05:54:17;98923.47;;;21.44;72.88
62548;BME280;48602;45.192;5.722;2023-07-28T05:56:43;98913.72;;;21.43;73.01
62548;BME280;48602;45.192;5.722;2023-07-28T05:59:08;98923.47;;;21.44;73.92
62548;BME280;48602;45.192;5.722;2023-07-28T06:01:34;98928.53;;;21.47;73.67
62548;BME280;48602;45.192;5.722;2023-07-28T06:03:59;98928.00;;;21.53;73.41
62548;BME280;48602;45.192;5.722;2023-07-28T06:06:25;98926.91;;;21.55;72.31
62548;BME280;48602;45.192;5.722;2023-07-28T06:08:51;98934.34;;;21.52;72.77
62548;BME280;48602;45.192;5.722;2023-07-28T06:11:17;98925.00;;;21.46;72.40
62548;BME280;48602;45.192;5.722;2023-07-28T06:13:43;98926.16;;;21.44;70.88
62548;BME280;48602;45.192;5.722;2023-07-28T06:16:09;98919.09;;;21.43;73.24
62548;BME280;48602;45.192;5.722;2023-07-28T06:18:34;98916.41;;;21.43;73.50
62548;BME280;48602;45.192;5.722;2023-07-28T06:20:59;98922.75;;;21.42;74.68
62548;BME280;48602;45.192;5.722;2023-07-28T06:23:25;98927.00;;;21.44;73.76
62548;BME280;48602;45.192;5.722;2023-07-28T06:25:50;98921.78;;;21.43;74.57
62548;BME280;48602;45.192;5.722;2023-07-28T06:28:16;98920.78;;;21.44;74.05
62548;BME280;48602;45.192;5.722;2023-07-28T06:30:41;98920.91;;;21.42;72.83
62548;BME280;48602;45.192;5.722;2023-07-28T06:33:08;98920.63;;;21.45;73.61
62548;BME280;48602;45.192;5.722;2023-07-28T06:35:33;98924.75;;;21.49;73.17
62548;BME280;48602;45.192;5.722;2023-07-28T06:38:00;98915.31;;;21.55;73.26
62548;BME280;48602;45.192;5.722;2023-07-28T06:40:25;98928.03;;;21.63;73.06
62548;BME280;48602;45.192;5.722;2023-07-28T06:42:51;98925.81;;;21.68;73.28
62548;BME280;48602;45.192;5.722;2023-07-28T06:45:17;98930.63;;;21.74;73.34
62548;BME280;48602;45.192;5.722;2023-07-28T06:47:42;98934.19;;;21.84;73.22
62548;BME280;48602;45.192;5.722;2023-07-28T06:50:08;98940.28;;;21.95;71.78
62548;BME280;48602;45.192;5.722;2023-07-28T06:52:34;98933.78;;;21.98;71.32
62548;BME280;48602;45.192;5.722;2023-07-28T06:54:59;98940.09;;;22.08;71.42
62548;BME280;48602;45.192;5.722;2023-07-28T06:57:24;98944.34;;;22.20;72.49
62548;BME280;48602;45.192;5.722;2023-07-28T06:59:50;98949.72;;;22.30;72.37
62548;BME280;48602;45.192;5.722;2023-07-28T07:02:15;98948.03;;;22.39;71.99
62548;BME280;48602;45.192;5.722;2023-07-28T07:04:41;98943.50;;;22.49;72.05
62548;BME280;48602;45.192;5.722;2023-07-28T07:07:07;98947.78;;;22.61;71.94
62548;BME280;48602;45.192;5.722;2023-07-28T07:09:32;98939.69;;;22.71;71.99
62548;BME280;48602;45.192;5.722;2023-07-28T07:11:57;98942.25;;;22.82;71.86
62548;BME280;48602;45.192;5.722;2023-07-28T07:14:23;98954.72;;;22.92;71.22
62548;BME280;48602;45.192;5.722;2023-07-28T07:16:49;98961.19;;;23.00;70.79
62548;BME280;48602;45.192;5.722;2023-07-28T07:19:14;98961.47;;;23.06;70.72
62548;BME280;48602;45.192;5.722;2023-07-28T07:21:41;98966.13;;;23.14;70.67
62548;BME280;48602;45.192;5.722;2023-07-28T07:24:07;98973.75;;;23.18;70.36
62548;BME280;48602;45.192;5.722;2023-07-28T07:26:32;98958.31;;;23.20;70.42
62548;BME280;48602;45.192;5.722;2023-07-28T07:28:58;98967.94;;;23.23;70.23
62548;BME280;48602;45.192;5.722;2023-07-28T07:31:23;98964.41;;;23.22;69.75
62548;BME280;48602;45.192;5.722;2023-07-28T07:33:49;98961.72;;;23.22;70.01
62548;BME280;48602;45.192;5.722;2023-07-28T07:36:16;98954.66;;;23.21;70.37
62548;BME280;48602;45.192;5.722;2023-07-28T07:38:42;98951.09;;;23.21;70.97
62548;BME280;48602;45.192;5.722;2023-07-28T07:41:08;98951.38;;;23.18;71.00
62548;BME280;48602;45.192;5.722;2023-07-28T07:43:35;98951.53;;;23.16;69.86
62548;BME280;48602;45.192;5.722;2023-07-28T07:46:01;98955.34;;;23.14;70.07
62548;BME280;48602;45.192;5.722;2023-07-28T07:48:27;98948.97;;;23.15;69.74
62548;BME280;48602;45.192;5.722;2023-07-28T07:50:52;98956.34;;;23.13;69.35
62548;BME280;48602;45.192;5.722;2023-07-28T07:53:18;98958.91;;;23.14;69.28
62548;BME280;48602;45.192;5.722;2023-07-28T07:55:43;98950.69;;;23.16;68.95
62548;BME280;48602;45.192;5.722;2023-07-28T07:58:09;98946.00;;;23.18;68.59
62548;BME280;48602;45.192;5.722;2023-07-28T08:00:37;98944.59;;;23.23;68.30
62548;BME280;48602;45.192;5.722;2023-07-28T08:03:03;98938.22;;;23.24;66.67
62548;BME280;48602;45.192;5.722;2023-07-28T08:05:30;98937.66;;;23.21;67.07
62548;BME280;48602;45.192;5.722;2023-07-28T08:07:55;98935.13;;;23.19;67.42
62548;BME280;48602;45.192;5.722;2023-07-28T08:10:20;98931.16;;;23.23;67.24
62548;BME280;48602;45.192;5.722;2023-07-28T08:12:46;98935.91;;;23.29;67.21
62548;BME280;48602;45.192;5.722;2023-07-28T08:15:12;98935.50;;;23.34;67.31
62548;BME280;48602;45.192;5.722;2023-07-28T08:17:38;98925.00;;;23.41;66.34
62548;BME280;48602;45.192;5.722;2023-07-28T08:20:04;98930.78;;;23.46;65.20
62548;BME280;48602;45.192;5.722;2023-07-28T08:22:30;98925.69;;;23.52;65.57
62548;BME280;48602;45.192;5.722;2023-07-28T08:24:56;98926.81;;;23.59;65.32
62548;BME280;48602;45.192;5.722;2023-07-28T08:27:21;98921.66;;;23.66;64.68
62548;BME280;48602;45.192;5.722;2023-07-28T08:29:46;98921.91;;;23.73;63.29
62548;BME280;48602;45.192;5.722;2023-07-28T08:32:12;98917.78;;;23.78;60.66
62548;BME280;48602;45.192;5.722;2023-07-28T08:34:37;98923.41;;;23.85;60.52
62548;BME280;48602;45.192;5.722;2023-07-28T08:37:02;98918.97;;;23.93;60.63
62548;BME280;48602;45.192;5.722;2023-07-28T08:39:28;98922.59;;;24.02;59.77
62548;BME280;48602;45.192;5.722;2023-07-28T08:42:03;98919.53;;;24.15;60.04
62548;BME280;48602;45.192;5.722;2023-07-28T08:44:31;98917.50;;;24.26;59.56
62548;BME280;48602;45.192;5.722;2023-07-28T08:46:57;98918.41;;;24.35;59.53
62548;BME280;48602;45.192;5.722;2023-07-28T08:49:23;98905.41;;;24.48;59.47
62548;BME280;48602;45.192;5.722;2023-07-28T08:51:49;98903.53;;;24.66;58.57
62548;BME280;48602;45.192;5.722;2023-07-28T08:54:15;98905.00;;;24.79;58.28
62548;BME280;48602;45.192;5.722;2023-07-28T08:56:42;98914.53;;;24.91;57.52
62548;BME280;48602;45.192;5.722;2023-07-28T08:59:09;98909.22;;;24.99;57.71
62548;BME280;48602;45.192;5.722;2023-07-28T09:01:39;98910.81;;;25.10;56.33
62548;BME280;48602;45.192;5.722;2023-07-28T09:04:12;98908.69;;;25.21;56.27
62548;BME280;48602;45.192;5.722;2023-07-28T09:06:37;98913.50;;;25.35;56.33
62548;BME280;48602;45.192;5.722;2023-07-28T09:09:07;98918.13;;;25.51;55.44
62548;BME280;48602;45.192;5.722;2023-07-28T09:11:32;98922.28;;;25.63;54.88
62548;BME280;48602;45.192;5.722;2023-07-28T09:14:00;98922.16;;;25.73;54.82
62548;BME280;48602;45.192;5.722;2023-07-28T09:16:25;98926.22;;;25.77;55.09
62548;BME280;48602;45.192;5.722;2023-07-28T09:19:04;98933.66;;;25.83;53.41
62548;BME280;48602;45.192;5.722;2023-07-28T09:21:30;98926.94;;;25.87;53.86
62548;BME280;48602;45.192;5.722;2023-07-28T09:23:55;98919.72;;;25.96;54.08
62548;BME280;48602;45.192;5.722;2023-07-28T09:26:21;98912.16;;;26.07;53.96
62548;BME280;48602;45.192;5.722;2023-07-28T09:28:46;98910.81;;;26.12;52.73
62548;BME280;48602;45.192;5.722;2023-07-28T09:31:11;98907.94;;;26.13;52.34
62548;BME280;48602;45.192;5.722;2023-07-28T09:33:38;98902.72;;;26.20;52.62
62548;BME280;48602;45.192;5.722;2023-07-28T09:36:13;98905.59;;;26.26;51.65
62548;BME280;48602;45.192;5.722;2023-07-28T09:38:41;98913.91;;;26.33;51.69
62548;BME280;48602;45.192;5.722;2023-07-28T09:41:09;98906.84;;;26.40;51.15
62548;BME280;48602;45.192;5.722;2023-07-28T09:43:39;98896.69;;;26.50;52.08
62548;BME280;48602;45.192;5.722;2023-07-28T09:46:07;98893.84;;;26.60;51.68
62548;BME280;48602;45.192;5.722;2023-07-28T09:48:33;98896.38;;;26.61;50.80
62548;BME280;48602;45.192;5.722;2023-07-28T09:51:14;98893.84;;;26.60;50.79
62548;BME280;48602;45.192;5.722;2023-07-28T09:53:49;98893.69;;;26.61;50.83
62548;BME280;48602;45.192;5.722;2023-07-28T09:56:15;98885.03;;;26.66;51.42
62548;BME280;48602;45.192;5.722;2023-07-28T09:58:49;98876.75;;;26.75;51.57
62548;BME280;48602;45.192;5.722;2023-07-28T10:01:15;98873.19;;;26.83;51.69
62548;BME280;48602;45.192;5.722;2023-07-28T10:03:41;98863.22;;;26.92;51.25
62548;BME280;48602;45.192;5.722;2023-07-28T10:06:07;98860.34;;;26.93;50.44
62548;BME280;48602;45.192;5.722;2023-07-28T10:08:33;98863.06;;;26.93;50.27
62548;BME280;48602;45.192;5.722;2023-07-28T10:10:59;98862.75;;;26.96;50.11
62548;BME280;48602;45.192;5.722;2023-07-28T10:13:24;98868.28;;;27.03;50.15
62548;BME280;48602;45.192;5.722;2023-07-28T10:15:52;98868.81;;;27.15;50.24
62548;BME280;48602;45.192;5.722;2023-07-28T10:18:20;98857.09;;;27.30;49.98
62548;BME280;48602;45.192;5.722;2023-07-28T10:20:47;98857.66;;;27.49;49.78
62548;BME280;48602;45.192;5.722;2023-07-28T10:23:20;98869.97;;;27.67;49.43
62548;BME280;48602;45.192;5.722;2023-07-28T10:25:56;98860.06;;;27.83;48.63
62548;BME280;48602;45.192;5.722;2023-07-28T10:28:30;98851.06;;;27.90;48.87
62548;BME280;48602;45.192;5.722;2023-07-28T10:30:58;98851.50;;;28.02;47.87
62548;BME280;48602;45.192;5.722;2023-07-28T10:33:37;98837.72;;;28.11;47.75
62548;BME280;48602;45.192;5.722;2023-07-28T10:36:31;98835.41;;;28.31;48.04
62548;BME280;48602;45.192;5.722;2023-07-28T10:39:16;98834.25;;;28.48;48.10
62548;BME280;48602;45.192;5.722;2023-07-28T10:42:04;98842.63;;;28.62;47.14
62548;BME280;48602;45.192;5.722;2023-07-28T10:44:30;98847.13;;;28.69;47.78
62548;BME280;48602;45.192;5.722;2023-07-28T10:46:56;98836.19;;;28.77;47.73
62548;BME280;48602;45.192;5.722;2023-07-28T10:49:22;98833.41;;;28.86;47.07
62548;BME280;48602;45.192;5.722;2023-07-28T10:51:49;98833.16;;;28.95;47.15
62548;BME280;48602;45.192;5.722;2023-07-28T10:54:14;98835.53;;;28.98;47.43
62548;BME280;48602;45.192;5.722;2023-07-28T10:56:43;98838.13;;;28.92;46.37
62548;BME280;48602;45.192;5.722;2023-07-28T10:59:08;98824.25;;;28.87;45.98
62548;BME280;48602;45.192;5.722;2023-07-28T11:01:34;98822.38;;;28.87;46.84
62548;BME280;48602;45.192;5.722;2023-07-28T11:04:14;98822.75;;;28.84;47.17
62548;BME280;48602;45.192;5.722;2023-07-28T11:06:48;98820.88;;;28.85;46.23
62548;BME280;48602;45.192;5.722;2023-07-28T11:09:15;98824.31;;;28.78;46.78
62548;BME280;48602;45.192;5.722;2023-07-28T11:11:41;98814.19;;;28.72;45.10
62548;BME280;48602;45.192;5.722;2023-07-28T11:14:08;98811.84;;;28.69;45.55
62548;BME280;48602;45.192;5.722;2023-07-28T11:16:36;98809.13;;;28.69;45.16
62548;BME280;48602;45.192;5.722;2023-07-28T11:19:06;98800.31;;;28.67;45.32
62548;BME280;48602;45.192;5.722;2023-07-28T11:21:36;98802.94;;;28.61;45.08
62548;BME280;48602;45.192;5.722;2023-07-28T11:24:03;98803.31;;;28.58;45.52
62548;BME280;48602;45.192;5.722;2023-07-28T11:26:28;98807.53;;;28.60;45.51
62548;BME280;48602;45.192;5.722;2023-07-28T11:28:54;98809.88;;;28.63;45.69
62548;BME280;48602;45.192;5.722;2023-07-28T11:31:23;98800.50;;;28.66;45.48
62548;BME280;48602;45.192;5.722;2023-07-28T11:33:50;98797.78;;;28.66;46.00
62548;BME280;48602;45.192;5.722;2023-07-28T11:36:25;98803.69;;;28.69;46.18
62548;BME280;48602;45.192;5.722;2023-07-28T11:38:52;98797.91;;;28.72;46.55
62548;BME280;48602;45.192;5.722;2023-07-28T11:41:19;98797.53;;;28.75;46.46
62548;BME280;48602;45.192;5.722;2023-07-28T11:43:46;98809.25;;;28.76;47.13
62548;BME280;48602;45.192;5.722;2023-07-28T11:46:39;98805.03;;;28.73;46.86
62548;BME280;48602;45.192;5.722;2023-07-28T11:51:44;98810.44;;;28.73;47.57
62548;BME280;48602;45.192;5.722;2023-07-28T11:54:16;98815.03;;;28.73;46.65
62548;BME280;48602;45.192;5.722;2023-07-28T11:56:46;98806.41;;;28.69;46.41
62548;BME280;48602;45.192;5.722;2023-07-28T11:59:13;98819.13;;;28.69;47.34
62548;BME280;48602;45.192;5.722;2023-07-28T12:01:55;98800.63;;;28.72;47.33
62548;BME280;48602;45.192;5.722;2023-07-28T12:07:07;98809.44;;;28.74;45.91
62548;BME280;48602;45.192;5.722;2023-07-28T12:09:53;98782.09;;;28.76;46.16
62548;BME280;48602;45.192;5.722;2023-07-28T12:12:29;98781.94;;;28.77;47.01
62548;BME280;48602;45.192;5.722;2023-07-28T12:14:56;98765.94;;;28.82;46.04
62548;BME280;48602;45.192;5.722;2023-07-28T12:17:25;98761.16;;;28.85;45.86
62548;BME280;48602;45.192;5.722;2023-07-28T12:20:04;98758.75;;;28.90;46.02
62548;BME280;48602;45.192;5.722;2023-07-28T12:22:43;98773.72;;;29.00;45.25
62548;BME280;48602;45.192;5.722;2023-07-28T12:25:10;98773.81;;;29.07;45.46
62548;BME280;48602;45.192;5.722;2023-07-28T12:27:36;98794.63;;;29.14;44.56
62548;BME280;48602;45.192;5.722;2023-07-28T12:30:02;98778.94;;;29.16;44.30
62548;BME280;48602;45.192;5.722;2023-07-28T12:32:28;98792.94;;;29.13;44.12
62548;BME280;48602;45.192;5.722;2023-07-28T12:34:53;98791.69;;;29.16;44.62
62548;BME280;48602;45.192;5.722;2023-07-28T12:37:19;98780.94;;;29.23;44.74
62548;BME280;48602;45.192;5.722;2023-07-28T12:39:45;98781.69;;;29.31;44.53
62548;BME280;48602;45.192;5.722;2023-07-28T12:42:11;98781.75;;;29.38;44.88
62548;BME280;48602;45.192;5.722;2023-07-28T12:44:38;98776.91;;;29.48;44.08
62548;BME280;48602;45.192;5.722;2023-07-28T12:47:04;98774.25;;;29.55;43.91
62548;BME280;48602;45.192;5.722;2023-07-28T12:49:30;98776.22;;;29.61;43.71
62548;BME280;48602;45.192;5.722;2023-07-28T12:51:59;98759.97;;;29.67;42.58
62548;BME280;48602;45.192;5.722;2023-07-28T12:54:25;98782.63;;;29.74;41.95
62548;BME280;48602;45.192;5.722;2023-07-28T12:56:53;98765.97;;;29.77;42.91
62548;BME280;48602;45.192;5.722;2023-07-28T12:59:19;98760.19;;;29.87;42.98
62548;BME280;48602;45.192;5.722;2023-07-28T13:01:44;98760.34;;;30.00;42.80
62548;BME280;48602;45.192;5.722;2023-07-28T13:04:10;98768.19;;;30.10;42.61
62548;BME280;48602;45.192;5.722;2023-07-28T13:06:36;98761.78;;;30.17;42.13